In Rescue
 
Open Full Screen Window  High Contrast Mode
Wind Gusting 00 knots
07
January 22, 2020 5:45 PM EST
Weather Information
Wind Direction
  190 °
Wind Speed
  07 kt (8 mph)
Wind Gust
  00 kt (0 mph)
Altimeter
30.04 in
Visibility
10 SM
Temperature
03° C
37° F
Dewpoint
-02° C
28° F
Humidity
70%
Sky Condition
Overcast @ 3,100 ft
Scattered @ 2,300 ft
VFR

METAR KCVX 222245Z AUTO 19007KT 10SM SCT023 OVC031 03/M02 A3004 RMK AO2 T00301021

FAA Disclaimer: The data displayed is for advisory purposes only and is not to be used for flight planning or operations.